createdAt,value
2022-09-12T00:00:59.300Z,23.4
2022-09-12T00:06:39.686Z,23.4
2022-09-12T00:12:17.394Z,23.4
2022-09-12T00:17:55.880Z,23.4
2022-09-12T00:23:34.292Z,23.4
2022-09-12T00:29:10.790Z,23.4
2022-09-12T00:34:32.430Z,23.4
2022-09-12T00:40:11.154Z,23.4
2022-09-12T00:45:47.989Z,23.4
2022-09-12T00:51:24.888Z,23.4
2022-09-12T00:57:02.963Z,23.4
2022-09-12T01:02:24.673Z,23.4
2022-09-12T01:08:01.781Z,23.4
2022-09-12T01:13:39.634Z,23.4
2022-09-12T01:19:16.715Z,23.4
2022-09-12T01:24:54.528Z,23.4
2022-09-12T01:30:31.824Z,23.4
2022-09-12T01:36:08.893Z,23.4
2022-09-12T01:41:45.729Z,23.4
2022-09-12T01:47:23.363Z,23.4
2022-09-12T01:52:45.580Z,23.4
2022-09-12T01:58:27.673Z,23.4
2022-09-12T02:04:05.640Z,23.4
2022-09-12T02:09:42.412Z,23.4
2022-09-12T02:15:19.803Z,23.3
2022-09-12T02:21:19.593Z,23.4
2022-09-12T02:26:56.382Z,23.3
2022-09-12T02:32:33.544Z,23.3
2022-09-12T02:38:11.258Z,23.4
2022-09-12T02:43:48.933Z,23.4
2022-09-12T02:49:26.214Z,23.3
2022-09-12T02:54:48.131Z,23.3
2022-09-12T03:00:25.348Z,23.3
2022-09-12T03:06:02.896Z,23.3
2022-09-12T03:11:40.339Z,23.3
2022-09-12T03:17:17.818Z,23.3
2022-09-12T03:22:38.908Z,23.3
2022-09-12T03:28:16.083Z,23.3
2022-09-12T03:33:53.118Z,23.3
2022-09-12T03:39:34.207Z,23.3
2022-09-12T03:45:11.550Z,23.3
2022-09-12T03:50:48.753Z,23.3
2022-09-12T03:56:25.518Z,23.3
2022-09-12T04:02:04.042Z,23.3
2022-09-12T04:07:41.766Z,23.3
2022-09-12T04:12:48.383Z,23.3
2022-09-12T04:18:26.666Z,23.3
2022-09-12T04:24:04.542Z,23.3
2022-09-12T04:29:26.881Z,23.3
2022-09-12T04:35:04.377Z,23.2
2022-09-12T04:40:41.657Z,23.1
2022-09-12T04:46:18.448Z,23.1
2022-09-12T04:51:59.105Z,23.1
2022-09-12T04:57:36.900Z,23.1
2022-09-12T05:03:13.448Z,23
2022-09-12T05:08:54.257Z,23
2022-09-12T05:15:02.060Z,22.9
2022-09-12T05:20:26.761Z,22.9
2022-09-12T05:26:04.862Z,22.9
2022-09-12T05:31:42.919Z,22.9
2022-09-12T05:37:19.618Z,22.9
2022-09-12T05:43:01.909Z,22.9
2022-09-12T05:48:39.943Z,22.9
2022-09-12T05:54:16.956Z,22.9
2022-09-12T05:59:54.513Z,22.9
2022-09-12T06:05:37.642Z,22.8
2022-09-12T06:11:18.710Z,22.9
2022-09-12T06:16:57.185Z,22.9
2022-09-12T06:22:38.804Z,22.9
2022-09-12T06:28:16.596Z,22.8
2022-09-12T06:33:58.200Z,22.9
2022-09-12T06:39:34.907Z,22.8
2022-09-12T06:45:17.764Z,22.8
2022-09-12T06:50:56.341Z,22.9
2022-09-12T06:56:34.930Z,22.9
2022-09-12T07:01:57.633Z,22.8
2022-09-12T07:07:34.985Z,22.9
2022-09-12T07:13:11.403Z,22.9
2022-09-12T07:18:50.070Z,22.9
2022-09-12T07:24:28.110Z,22.9
2022-09-12T07:30:31.313Z,22.9
2022-09-12T07:36:07.500Z,22.9
2022-09-12T07:41:30.293Z,22.9
2022-09-12T07:47:07.273Z,22.9
2022-09-12T07:52:45.243Z,22.9
2022-09-12T07:58:27.771Z,22.9
2022-09-12T08:04:29.682Z,22.9
2022-09-12T08:10:10.905Z,22.9
2022-09-12T08:15:52.552Z,22.9
2022-09-12T08:21:35.095Z,22.9
2022-09-12T08:26:57.412Z,22.9
2022-09-12T08:32:35.448Z,22.9
2022-09-12T08:38:13.343Z,22.9
2022-09-12T08:43:35.824Z,22.9
2022-09-12T08:49:18.002Z,22.9
2022-09-12T08:54:55.926Z,22.9
2022-09-12T09:00:33.784Z,22.9
2022-09-12T09:06:12.483Z,22.9
2022-09-12T09:11:49.683Z,22.9
2022-09-12T09:17:27.671Z,22.9
2022-09-12T09:22:54.385Z,22.9
2022-09-12T09:28:53.690Z,22.9
2022-09-12T09:34:30.600Z,22.9
2022-09-12T09:40:11.867Z,22.9
2022-09-12T09:45:18.970Z,22.9
2022-09-12T09:50:58.251Z,22.9
2022-09-12T09:56:05.351Z,22.9
2022-09-12T10:01:13.369Z,22.9
2022-09-12T10:06:39.284Z,22.9
2022-09-12T10:12:02.731Z,22.9
2022-09-12T10:17:40.976Z,23
2022-09-12T10:23:23.898Z,23
2022-09-12T10:29:06.073Z,22.9
2022-09-12T10:34:43.631Z,22.9
2022-09-12T10:40:06.697Z,22.9
2022-09-12T10:45:44.832Z,22.9
2022-09-12T10:51:30.017Z,22.9
2022-09-12T10:57:11.226Z,22.9
2022-09-12T11:02:53.185Z,22.9
2022-09-12T11:08:15.340Z,22.8
2022-09-12T11:13:57.024Z,22.8
2022-09-12T11:19:35.213Z,22.8
2022-09-12T11:25:02.055Z,22.8
2022-09-12T11:30:27.637Z,22.8
2022-09-12T11:35:55.752Z,22.8
2022-09-12T11:41:35.881Z,22.8
2022-09-12T11:47:14.237Z,22.8
2022-09-12T11:52:54.212Z,22.8
2022-09-12T11:58:31.874Z,22.8
2022-09-12T12:04:14.349Z,22.8
2022-09-12T12:09:41.678Z,22.8
2022-09-12T12:15:08.957Z,22.8
2022-09-12T12:20:56.081Z,22.8
2022-09-12T12:26:36.942Z,22.8
2022-09-12T12:32:15.147Z,22.7
2022-09-12T12:37:57.539Z,22.8
2022-09-12T12:43:40.590Z,22.8
2022-09-12T12:49:18.509Z,22.8
2022-09-12T12:55:00.299Z,22.8
2022-09-12T13:00:39.758Z,22.8
2022-09-12T13:06:22.196Z,22.8
2022-09-12T13:11:44.695Z,22.8
2022-09-12T13:17:21.942Z,22.7
2022-09-12T13:23:28.146Z,22.7
2022-09-12T13:29:05.517Z,22.8
2022-09-12T13:34:47.638Z,22.7
2022-09-12T13:40:24.929Z,22.7
2022-09-12T13:46:03.044Z,22.7
2022-09-12T13:51:40.383Z,22.7
2022-09-12T13:57:18.052Z,22.7
2022-09-12T14:02:56.138Z,22.7
2022-09-12T14:08:34.068Z,22.7
2022-09-12T14:14:12.955Z,22.7
2022-09-12T14:19:52.810Z,22.7
2022-09-12T14:25:34.744Z,22.7
2022-09-12T14:31:12.733Z,22.7
2022-09-12T14:36:50.473Z,22.7
2022-09-12T14:42:13.166Z,22.7
2022-09-12T14:47:50.392Z,22.7
2022-09-12T14:53:31.578Z,22.6
2022-09-12T14:59:09.005Z,22.6
2022-09-12T15:04:48.192Z,22.6
2022-09-12T15:10:26.102Z,22.6
2022-09-12T15:16:03.404Z,22.6
2022-09-12T15:21:27.878Z,22.6
2022-09-12T15:27:06.459Z,22.5
2022-09-12T15:32:44.777Z,22.5
2022-09-12T15:38:26.294Z,22.5
2022-09-12T15:44:04.788Z,22.5
2022-09-12T15:49:46.800Z,22.4
2022-09-12T15:55:14.128Z,22.4
2022-09-12T16:01:09.868Z,22.4
2022-09-12T16:06:38.181Z,22.4
2022-09-12T16:12:19.580Z,22.4
2022-09-12T16:17:40.925Z,22.4
2022-09-12T16:23:20.755Z,22.4
2022-09-12T16:28:59.302Z,22.4
2022-09-12T16:34:37.462Z,22.3
2022-09-12T16:40:15.719Z,22.3
2022-09-12T16:45:54.178Z,22.3
2022-09-12T16:51:37.255Z,22.3
2022-09-12T16:57:15.495Z,22.3
2022-09-12T17:02:56.749Z,22.3
2022-09-12T17:08:38.341Z,22.4
2022-09-12T17:14:26.463Z,22.4
2022-09-12T17:19:54.133Z,22.3
2022-09-12T17:25:22.513Z,22.3
2022-09-12T17:30:45.131Z,22.3
2022-09-12T17:36:22.614Z,22.4
2022-09-12T17:42:06.651Z,22.4
2022-09-12T17:47:47.830Z,22.4
2022-09-12T17:53:33.825Z,22.4
2022-09-12T17:58:57.957Z,22.4
2022-09-12T18:04:37.068Z,22.4
2022-09-12T18:10:14.864Z,22.4
2022-09-12T18:15:54.731Z,22.4
2022-09-12T18:21:18.540Z,22.4
2022-09-12T18:26:56.048Z,22.4
2022-09-12T18:32:49.753Z,22.4
2022-09-12T18:38:12.690Z,22.4
2022-09-12T18:43:54.311Z,22.4
2022-09-12T18:49:32.433Z,22.4
2022-09-12T18:55:12.837Z,22.4
2022-09-12T19:00:50.570Z,22.4
2022-09-12T19:06:28.504Z,22.4
2022-09-12T19:12:10.562Z,22.4
2022-09-12T19:17:33.801Z,22.3
2022-09-12T19:23:01.273Z,22.3
2022-09-12T19:28:24.237Z,22.3
2022-09-12T19:33:48.522Z,22.3
2022-09-12T19:39:32.019Z,22.3
2022-09-12T19:45:10.646Z,22.3
2022-09-12T19:50:48.853Z,22.3
2022-09-12T19:56:31.781Z,22.3
2022-09-12T20:02:15.426Z,22.3
2022-09-12T20:07:55.475Z,22.3
2022-09-12T20:13:33.565Z,22.3
2022-09-12T20:19:11.525Z,22.4
2022-09-12T20:24:52.760Z,22.3
2022-09-12T20:30:30.348Z,22.4
2022-09-12T20:35:53.512Z,22.4
2022-09-12T20:41:31.577Z,22.4
2022-09-12T20:47:12.796Z,22.4
2022-09-12T20:52:50.416Z,22.4
2022-09-12T20:58:27.721Z,22.4
2022-09-12T21:04:06.495Z,22.4
2022-09-12T21:09:44.824Z,22.4
2022-09-12T21:15:22.483Z,22.4
2022-09-12T21:21:02.352Z,22.4
2022-09-12T21:26:43.205Z,22.4
2022-09-12T21:32:13.535Z,22.4
2022-09-12T21:37:51.977Z,22.5
2022-09-12T21:43:30.432Z,22.5
2022-09-12T21:49:08.624Z,22.4
2022-09-12T21:54:46.288Z,22.5
2022-09-12T22:00:08.851Z,22.5
2022-09-12T22:05:30.841Z,22.5
2022-09-12T22:11:09.933Z,22.5
2022-09-12T22:17:16.275Z,22.5
2022-09-12T22:22:53.927Z,22.6
2022-09-12T22:28:30.541Z,22.5
2022-09-12T22:34:09.117Z,22.6
2022-09-12T22:39:49.905Z,22.5
2022-09-12T22:45:27.239Z,22.6
2022-09-12T22:51:10.029Z,22.6
2022-09-12T22:56:47.532Z,22.6
2022-09-12T23:02:09.457Z,22.5
2022-09-12T23:07:32.209Z,22.6
2022-09-12T23:12:55.741Z,22.6
2022-09-12T23:18:01.452Z,22.6
2022-09-12T23:23:23.475Z,22.6
2022-09-12T23:28:44.705Z,22.5
2022-09-12T23:34:22.814Z,22.6
2022-09-12T23:39:30.567Z,22.6
2022-09-12T23:45:07.576Z,22.6
2022-09-12T23:50:29.469Z,22.6
2022-09-12T23:56:08.685Z,22.6
